Time;durP1;ratioP1;P1;durP2;ratioP2;P2;SDS_P1;SDS_P2;PMS_P1;PMS_P2;Temp;Humidity;BMP_temperature;BMP_pressure;BME280_temperature;BME280_humidity;BME280_pressure;Samples;Min_cycle;Max_cycle;Signal;HPM_P1;HPM_P2
2021/10/17 00:01:15;;;;;;;16.00;8.15;;;;;;;1.90;96.66;95811.84;5038561;28;20475;-78
2021/10/17 00:03:41;;;;;;;19.02;9.10;;;;;;;1.84;96.69;95807.50;5032419;28;20099;-78
2021/10/17 00:06:06;;;;;;;20.85;9.10;;;;;;;1.70;97.38;95821.53;5038732;28;20057;-78
2021/10/17 00:08:32;;;;;;;20.75;9.45;;;;;;;1.67;98.24;95821.94;5036796;28;20052;-78
2021/10/17 00:10:58;;;;;;;22.52;8.80;;;;;;;1.68;97.83;95828.69;5031725;28;20056;-78
2021/10/17 00:13:23;;;;;;;19.83;9.80;;;;;;;1.68;97.11;95828.69;5048967;28;20469;-78
2021/10/17 00:15:49;;;;;;;20.05;9.23;;;;;;;1.64;97.39;95830.13;5021649;28;20049;-78
2021/10/17 00:18:15;;;;;;;23.98;9.80;;;;;;;1.59;97.15;95835.13;5034502;28;20038;-78
2021/10/17 00:20:41;;;;;;;20.23;9.68;;;;;;;1.60;97.13;95831.53;5034346;28;20037;-78
2021/10/17 00:23:06;;;;;;;19.40;9.25;;;;;;;1.50;97.80;95835.34;5032533;28;20045;-79
2021/10/17 00:25:32;;;;;;;21.17;9.10;;;;;;;1.53;97.70;95832.34;5028899;28;20599;-79
2021/10/17 00:27:58;;;;;;;20.35;9.40;;;;;;;1.46;97.99;95834.16;5036397;28;20071;-78
2021/10/17 00:30:23;;;;;;;19.33;9.50;;;;;;;1.48;97.26;95834.78;5016766;28;20118;-79
2021/10/17 00:32:49;;;;;;;18.23;8.40;;;;;;;1.43;96.95;95829.38;5035572;28;20147;-79
2021/10/17 00:35:15;;;;;;;19.77;9.13;;;;;;;1.35;98.40;95830.41;5016180;28;20503;-78
2021/10/17 00:37:41;;;;;;;18.15;8.73;;;;;;;1.44;98.11;95828.38;5035819;28;20037;-78
2021/10/17 00:40:10;;;;;;;19.00;9.02;;;;;;;1.51;97.50;95833.56;5023358;28;20050;-78
2021/10/17 00:42:36;;;;;;;17.52;8.45;;;;;;;1.56;97.36;95831.16;5030005;28;20065;-78
2021/10/17 00:45:06;;;;;;;19.75;9.27;;;;;;;1.47;97.25;95838.34;5033784;28;20104;-78
2021/10/17 00:47:32;;;;;;;19.65;9.15;;;;;;;1.36;97.82;95836.38;5032629;28;20043;-77
2021/10/17 00:49:58;;;;;;;18.73;8.90;;;;;;;1.42;97.93;95840.75;5034902;28;20049;-78
2021/10/17 00:52:23;;;;;;;19.45;9.35;;;;;;;1.48;97.50;95845.16;5035859;28;20042;-78
2021/10/17 00:54:49;;;;;;;20.27;9.32;;;;;;;1.47;97.01;95848.72;5026838;28;20048;-77
2021/10/17 00:57:16;;;;;;;20.63;9.48;;;;;;;1.49;96.94;95851.91;5016271;28;20049;-78
2021/10/17 00:59:43;;;;;;;20.42;9.70;;;;;;;1.53;97.35;95849.72;5029413;28;20045;-79
2021/10/17 01:02:09;;;;;;;20.35;10.10;;;;;;;1.58;97.12;95854.28;5033262;28;20065;-77
2021/10/17 01:04:39;;;;;;;21.33;9.93;;;;;;;1.56;97.19;95851.91;5035214;28;20128;-79
2021/10/17 01:07:05;;;;;;;18.77;9.05;;;;;;;1.62;96.68;95855.47;5035519;28;20037;-78
2021/10/17 01:09:31;;;;;;;20.50;9.75;;;;;;;1.54;97.37;95854.69;5035494;28;20060;-78
2021/10/17 01:11:57;;;;;;;24.63;9.82;;;;;;;1.51;97.94;95844.72;5025821;28;20041;-78
2021/10/17 01:14:23;;;;;;;20.70;9.45;;;;;;;1.43;98.30;95844.94;5024083;28;20045;-79
2021/10/17 01:16:51;;;;;;;22.70;9.60;;;;;;;1.52;97.97;95846.34;5020272;28;20418;-78
2021/10/17 01:19:18;;;;;;;22.13;9.07;;;;;;;1.52;97.51;95841.16;5034652;28;20053;-78
2021/10/17 01:21:45;;;;;;;17.38;8.65;;;;;;;1.53;97.32;95842.72;5031092;28;20041;-78
2021/10/17 01:24:13;;;;;;;20.05;9.57;;;;;;;1.57;96.70;95848.31;5029660;28;20048;-77
2021/10/17 01:26:39;;;;;;;21.02;9.52;;;;;;;1.54;96.71;95844.31;5031345;28;20044;-78
2021/10/17 01:29:05;;;;;;;20.38;9.13;;;;;;;1.40;97.05;95834.97;5032472;28;20045;-78
2021/10/17 01:31:39;;;;;;;18.98;9.23;;;;;;;1.46;97.41;95836.75;5031004;28;20048;-78
2021/10/17 01:34:06;;;;;;;21.70;8.93;;;;;;;1.44;96.66;95843.94;5004854;28;20076;-78
2021/10/17 01:36:36;;;;;;;20.17;9.48;;;;;;;1.42;97.01;95840.75;5032394;28;20041;-78
2021/10/17 01:39:03;;;;;;;23.52;8.90;;;;;;;1.28;97.23;95834.81;5033284;28;20056;-78
2021/10/17 01:41:29;;;;;;;21.15;9.68;;;;;;;1.30;97.33;95832.00;5031761;28;20034;-78
2021/10/17 01:44:01;;;;;;;19.70;9.27;;;;;;;1.35;97.06;95827.81;5032971;28;20042;-78
2021/10/17 01:46:26;;;;;;;19.05;9.32;;;;;;;1.33;96.74;95829.00;5031541;28;20080;-77
2021/10/17 01:48:52;;;;;;;20.75;9.00;;;;;;;1.21;97.37;95824.44;5033092;28;20084;-78
2021/10/17 01:51:17;;;;;;;19.13;8.73;;;;;;;1.27;96.80;95825.44;5034226;28;20103;-78
2021/10/17 01:53:43;;;;;;;17.92;9.45;;;;;;;1.29;96.88;95830.41;5031360;28;20045;-78
2021/10/17 01:56:08;;;;;;;20.05;8.73;;;;;;;1.17;96.93;95818.06;5030444;28;20033;-78
2021/10/17 01:58:34;;;;;;;18.20;9.20;;;;;;;1.11;97.54;95818.88;5015956;28;20037;-78
2021/10/17 02:01:00;;;;;;;18.77;8.52;;;;;;;1.07;97.32;95814.31;5033949;28;20050;-78
2021/10/17 02:03:25;;;;;;;16.13;7.88;;;;;;;1.07;97.33;95822.88;5027846;28;20052;-79
2021/10/17 02:05:51;;;;;;;21.08;9.05;;;;;;;1.08;97.38;95814.09;5032069;28;20045;-77
2021/10/17 02:08:16;;;;;;;16.20;8.73;;;;;;;1.00;97.59;95814.31;5033298;28;20045;-78
2021/10/17 02:10:42;;;;;;;19.35;9.50;;;;;;;0.86;97.74;95816.91;5033336;28;20602;-77
2021/10/17 02:13:07;;;;;;;19.77;8.65;;;;;;;0.78;98.46;95816.31;5032123;28;20144;-78
2021/10/17 02:15:33;;;;;;;18.63;8.93;;;;;;;0.85;97.66;95810.13;5026251;28;20056;-78
2021/10/17 02:17:58;;;;;;;19.67;9.27;;;;;;;0.79;98.06;95818.72;5026286;28;20590;-78
2021/10/17 02:20:24;;;;;;;18.30;9.20;;;;;;;0.76;98.18;95816.53;5033201;28;20037;-78
2021/10/17 02:22:49;;;;;;;19.15;9.30;;;;;;;0.74;98.20;95818.50;5032687;28;20045;-78
2021/10/17 02:25:15;;;;;;;18.55;9.32;;;;;;;0.73;98.02;95816.91;5029090;28;20065;-78
2021/10/17 02:27:40;;;;;;;16.63;8.40;;;;;;;0.69;98.35;95823.50;5006741;28;20392;-78
2021/10/17 02:30:07;;;;;;;23.02;9.90;;;;;;;0.61;98.00;95813.31;5048597;28;20048;-78
2021/10/17 02:32:36;;;;;;;22.60;9.80;;;;;;;0.69;97.96;95820.91;5041382;28;20549;-78
2021/10/17 02:35:02;;;;;;;18.83;9.13;;;;;;;0.67;98.06;95828.06;5014618;28;20418;-78
2021/10/17 02:37:30;;;;;;;21.20;9.27;;;;;;;0.73;97.88;95827.25;5033090;28;20503;-79
2021/10/17 02:39:56;;;;;;;18.42;9.20;;;;;;;0.77;96.85;95818.09;5033350;28;20043;-79
2021/10/17 02:42:22;;;;;;;19.42;9.27;;;;;;;0.68;97.00;95819.31;5020035;28;20046;-78
2021/10/17 02:44:47;;;;;;;19.15;9.27;;;;;;;0.62;97.45;95820.09;5027158;28;20107;-78
2021/10/17 02:47:13;;;;;;;21.38;9.32;;;;;;;0.58;98.90;95818.91;5043438;28;20069;-78
2021/10/17 02:49:38;;;;;;;19.52;9.40;;;;;;;0.48;99.17;95825.25;5015467;28;20068;-78
2021/10/17 02:52:04;;;;;;;23.38;10.50;;;;;;;0.51;99.09;95819.69;5016410;28;20071;-79
2021/10/17 02:54:30;;;;;;;24.30;10.40;;;;;;;0.57;99.09;95825.06;5015390;28;20042;-78
2021/10/17 02:56:55;;;;;;;19.70;9.43;;;;;;;0.56;98.92;95820.88;5034394;28;20049;-79
2021/10/17 02:59:21;;;;;;;23.10;9.63;;;;;;;0.69;98.10;95820.91;5033712;28;20045;-79
2021/10/17 03:01:46;;;;;;;21.90;9.90;;;;;;;0.66;98.07;95826.47;5006189;28;20045;-78
2021/10/17 03:04:12;;;;;;;23.98;9.85;;;;;;;0.73;97.98;95827.25;5029287;28;20049;-79
2021/10/17 03:06:38;;;;;;;22.75;10.23;;;;;;;0.65;98.10;95817.91;5035044;28;20083;-80
2021/10/17 03:09:03;;;;;;;24.48;10.27;;;;;;;0.50;98.90;95823.28;5017549;28;20065;-79
2021/10/17 03:11:29;;;;;;;23.35;10.27;;;;;;;0.55;98.51;95821.88;5033380;28;20038;-78
2021/10/17 03:13:55;;;;;;;22.80;9.90;;;;;;;0.45;98.51;95820.47;5034102;28;20430;-79
2021/10/17 03:16:20;;;;;;;22.98;10.25;;;;;;;0.54;98.07;95828.06;5021729;28;20146;-78
2021/10/17 03:18:46;;;;;;;20.02;9.75;;;;;;;0.51;98.15;95830.03;5034839;28;20143;-78
2021/10/17 03:21:11;;;;;;;24.63;9.65;;;;;;;0.58;97.62;95829.25;5035153;28;20331;-77
2021/10/17 03:23:37;;;;;;;20.15;9.30;;;;;;;0.59;97.00;95830.84;5034416;28;20469;-78
2021/10/17 03:26:02;;;;;;;27.33;9.70;;;;;;;0.44;97.44;95824.06;5030692;28;20053;-78
2021/10/17 03:28:28;;;;;;;18.90;9.20;;;;;;;0.40;97.84;95822.84;5035476;28;20073;-78
2021/10/17 03:30:55;;;;;;;20.42;9.25;;;;;;;0.43;97.61;95827.66;5017783;28;20050;-78
2021/10/17 03:33:22;;;;;;;17.23;8.73;;;;;;;0.40;98.02;95822.06;5026794;28;20042;-77
2021/10/17 03:35:47;;;;;;;20.85;9.18;;;;;;;0.34;98.00;95828.81;5015165;28;20136;-79
2021/10/17 03:38:13;;;;;;;20.73;9.05;;;;;;;0.36;97.69;95832.03;5022715;28;20056;-78
2021/10/17 03:40:39;;;;;;;17.77;9.32;;;;;;;0.25;98.32;95830.00;5038929;28;20041;-78
2021/10/17 03:43:04;;;;;;;21.67;8.98;;;;;;;0.22;98.24;95826.00;5034265;28;20038;-78
2021/10/17 03:45:30;;;;;;;19.13;9.48;;;;;;;0.14;98.55;95829.59;5031392;28;20037;-78
2021/10/17 03:47:57;;;;;;;19.98;9.40;;;;;;;0.28;97.86;95824.44;5016781;28;20274;-78
2021/10/17 03:50:23;;;;;;;18.20;8.68;;;;;;;0.23;98.27;95826.81;5047020;28;20042;-78
2021/10/17 03:52:49;;;;;;;18.60;9.52;;;;;;;0.29;97.80;95826.03;5037969;28;20044;-77
2021/10/17 03:55:14;;;;;;;17.42;8.43;;;;;;;0.26;97.86;95827.22;5020336;28;20100;-79
2021/10/17 03:57:40;;;;;;;19.52;9.02;;;;;;;0.17;97.99;95826.63;5031114;28;20088;-78
2021/10/17 04:00:06;;;;;;;19.13;9.00;;;;;;;0.17;97.85;95833.56;5038492;28;20068;-79
2021/10/17 04:02:34;;;;;;;19.60;9.20;;;;;;;0.25;97.37;95825.63;5038392;28;20395;-77
2021/10/17 04:04:59;;;;;;;19.65;9.88;;;;;;;0.28;97.04;95824.44;5022342;28;20045;-78
2021/10/17 04:07:25;;;;;;;18.83;9.27;;;;;;;0.15;97.21;95828.56;5038486;28;20494;-77
2021/10/17 04:09:51;;;;;;;20.70;9.75;;;;;;;0.09;97.61;95821.59;5038637;28;20669;-77
2021/10/17 04:12:16;;;;;;;20.73;9.02;;;;;;;0.10;97.63;95818.03;5043885;28;20045;-78
2021/10/17 04:14:42;;;;;;;18.77;8.95;;;;;;;-0.03;98.10;95812.81;5053110;28;20056;-79
2021/10/17 04:17:07;;;;;;;21.98;9.63;;;;;;;0.00;98.18;95817.63;5034231;28;20538;-79
2021/10/17 04:19:33;;;;;;;19.02;9.38;;;;;;;0.09;98.35;95816.44;5038231;28;20114;-78
2021/10/17 04:21:58;;;;;;;18.42;9.13;;;;;;;0.00;98.60;95812.44;5039945;28;20068;-78
2021/10/17 04:24:24;;;;;;;17.70;8.98;;;;;;;0.04;97.87;95818.78;5042389;28;20076;-77
2021/10/17 04:26:51;;;;;;;18.95;8.73;;;;;;;0.12;97.88;95818.63;5027725;28;20064;-78
2021/10/17 04:29:16;;;;;;;18.90;8.98;;;;;;;0.05;98.19;95810.03;5033114;28;20045;-77
2021/10/17 04:31:42;;;;;;;18.75;8.50;;;;;;;0.03;98.06;95812.03;5033445;28;20498;-78
2021/10/17 04:34:07;;;;;;;20.40;8.63;;;;;;;0.06;97.82;95811.66;5031659;28;20521;-77
2021/10/17 04:36:33;;;;;;;17.77;8.55;;;;;;;0.01;97.57;95803.66;5039227;28;20121;-78
2021/10/17 04:38:59;;;;;;;19.58;9.15;;;;;;;-0.04;97.69;95806.06;5053800;28;20127;-79
2021/10/17 04:41:24;;;;;;;23.00;9.48;;;;;;;-0.04;98.43;95814.59;5022746;28;20414;-78
2021/10/17 04:43:50;;;;;;;17.38;8.98;;;;;;;-0.09;98.20;95808.41;5028214;28;20046;-77
2021/10/17 04:46:16;;;;;;;19.42;8.93;;;;;;;-0.12;98.50;95808.81;5029260;28;20100;-78
2021/10/17 04:48:41;;;;;;;22.17;9.13;;;;;;;-0.10;98.34;95796.47;5036775;28;20500;-78
2021/10/17 04:51:07;;;;;;;19.50;8.68;;;;;;;-0.18;98.70;95800.81;5036295;28;20095;-78
2021/10/17 04:53:32;;;;;;;21.95;9.30;;;;;;;-0.19;98.56;95799.25;5026211;28;20496;-78
2021/10/17 04:55:58;;;;;;;18.88;8.77;;;;;;;-0.09;98.06;95795.47;5034907;28;20041;-77
2021/10/17 04:58:26;;;;;;;19.63;9.18;;;;;;;-0.21;98.74;95795.25;5050907;28;20048;-79
2021/10/17 05:00:52;;;;;;;18.02;8.43;;;;;;;-0.22;98.92;95794.44;5039886;28;20100;-77
2021/10/17 05:03:17;;;;;;;19.25;9.27;;;;;;;-0.13;98.40;95792.50;5047533;28;20041;-78
2021/10/17 05:05:43;;;;;;;15.57;8.27;;;;;;;-0.05;97.64;95789.72;5048766;28;20041;-78
2021/10/17 05:08:08;;;;;;;20.27;9.15;;;;;;;-0.08;97.65;95784.16;5017138;28;20041;-78
2021/10/17 05:10:35;;;;;;;19.00;8.90;;;;;;;-0.20;97.83;95789.88;5025727;28;20099;-78
2021/10/17 05:13:00;;;;;;;22.20;8.70;;;;;;;-0.15;98.81;95793.69;5036841;28;20073;-78
2021/10/17 05:15:26;;;;;;;17.80;8.43;;;;;;;-0.28;98.55;95784.88;5034813;28;20044;-78
2021/10/17 05:17:52;;;;;;;19.48;8.55;;;;;;;-0.27;99.37;95789.06;5028616;28;20045;-77
2021/10/17 05:20:17;;;;;;;17.92;8.57;;;;;;;-0.33;99.35;95792.44;5051012;28;20040;-78
2021/10/17 05:22:43;;;;;;;17.88;8.35;;;;;;;-0.28;100.00;95800.38;5044537;28;20042;-78
2021/10/17 05:25:11;;;;;;;19.15;8.93;;;;;;;-0.28;99.87;95795.22;5032176;28;20491;-78
2021/10/17 05:27:37;;;;;;;18.63;8.88;;;;;;;-0.29;99.40;95792.81;5017066;28;20129;-79
2021/10/17 05:30:03;;;;;;;15.85;8.00;;;;;;;-0.27;99.37;95802.00;5017061;28;20101;-78
2021/10/17 05:32:28;;;;;;;19.75;8.43;;;;;;;-0.27;99.89;95802.00;5017371;28;20045;-79
2021/10/17 05:34:54;;;;;;;17.05;8.02;;;;;;;-0.15;99.01;95804.03;5036553;28;20609;-78
2021/10/17 05:37:19;;;;;;;18.83;8.35;;;;;;;-0.16;98.24;95805.00;5017268;28;20041;-79
2021/10/17 05:39:45;;;;;;;15.48;7.82;;;;;;;-0.18;98.06;95810.38;5041748;28;20045;-79
2021/10/17 05:42:10;;;;;;;18.15;8.30;;;;;;;-0.28;98.37;95802.19;5056315;28;20044;-78
2021/10/17 05:44:36;;;;;;;15.88;7.88;;;;;;;-0.21;98.69;95801.22;5046814;28;20041;-78
2021/10/17 05:47:02;;;;;;;17.83;8.07;;;;;;;-0.10;98.34;95801.63;5053692;28;20052;-78
2021/10/17 05:49:27;;;;;;;15.57;7.80;;;;;;;-0.22;98.87;95804.78;5041337;28;20499;-78
2021/10/17 05:51:53;;;;;;;16.25;7.60;;;;;;;-0.22;98.51;95806.56;5035795;28;20042;-78
2021/10/17 05:54:18;;;;;;;17.77;7.75;;;;;;;-0.25;98.86;95805.16;5022371;28;20038;-79
2021/10/17 05:56:44;;;;;;;18.13;8.52;;;;;;;-0.26;99.19;95803.59;5016994;28;20557;-78
2021/10/17 05:59:09;;;;;;;16.40;8.13;;;;;;;-0.18;98.96;95800.03;5014257;28;20037;-77
2021/10/17 06:01:36;;;;;;;16.60;8.00;;;;;;;-0.19;99.17;95799.25;5038509;28;20045;-78
2021/10/17 06:04:02;;;;;;;16.17;7.88;;;;;;;-0.26;99.05;95803.59;5030534;28;20120;-78
2021/10/17 06:06:28;;;;;;;18.63;8.25;;;;;;;-0.31;99.69;95805.94;5026803;28;20044;-78
2021/10/17 06:08:55;;;;;;;16.73;7.70;;;;;;;-0.23;99.62;95813.56;5038675;28;20046;-78
2021/10/17 06:11:21;;;;;;;18.48;8.48;;;;;;;-0.09;99.20;95813.59;5030979;28;20425;-78
2021/10/17 06:13:47;;;;;;;16.10;7.65;;;;;;;0.00;98.22;95820.19;5017727;28;20049;-79
2021/10/17 06:16:12;;;;;;;15.48;7.35;;;;;;;-0.05;98.75;95822.56;5011499;28;20044;-78
2021/10/17 06:18:38;;;;;;;16.60;7.63;;;;;;;-0.07;99.21;95817.59;5016411;28;20526;-77
2021/10/17 06:21:06;;;;;;;15.82;7.55;;;;;;;-0.02;98.86;95819.59;5044970;28;20041;-79
2021/10/17 06:23:31;;;;;;;15.40;7.53;;;;;;;0.02;98.89;95825.97;5032428;28;20467;-79
2021/10/17 06:25:57;;;;;;;14.75;7.22;;;;;;;0.07;99.44;95828.78;5042880;28;20102;-78
2021/10/17 06:28:22;;;;;;;15.93;7.68;;;;;;;0.02;99.93;95825.97;5052675;28;20045;-78
2021/10/17 06:30:48;;;;;;;18.05;7.15;;;;;;;0.07;100.00;95833.94;5026736;28;20076;-78
2021/10/17 06:33:13;;;;;;;15.77;8.45;;;;;;;0.25;100.00;95835.19;5027202;28;20096;-78
2021/10/17 06:35:39;;;;;;;13.20;6.88;;;;;;;0.22;100.00;95840.75;5016019;28;20646;-78
2021/10/17 06:38:05;;;;;;;15.32;7.50;;;;;;;0.28;100.00;95839.97;5033491;28;20052;-78
2021/10/17 06:40:30;;;;;;;15.25;7.40;;;;;;;0.32;99.67;95836.00;5040707;28;20037;-77
2021/10/17 06:42:57;;;;;;;15.38;7.90;;;;;;;0.50;100.00;95838.81;5036514;28;20072;-77
2021/10/17 06:45:22;;;;;;;16.13;8.32;;;;;;;0.64;100.00;95844.00;5041798;28;20120;-78
2021/10/17 06:47:48;;;;;;;17.95;8.13;;;;;;;0.68;100.00;95843.41;5036730;28;20514;-77
2021/10/17 06:50:17;;;;;;;13.32;7.28;;;;;;;0.81;100.00;95850.38;5030950;28;20049;-78
2021/10/17 06:52:43;;;;;;;15.10;6.88;;;;;;;1.00;99.72;95837.63;5030791;28;20045;-78
2021/10/17 06:55:08;;;;;;;12.82;6.55;;;;;;;1.02;99.47;95846.81;5026490;28;20041;-78
2021/10/17 06:57:34;;;;;;;13.98;7.20;;;;;;;1.01;100.00;95855.56;5015859;28;20048;-78
2021/10/17 07:00:00;;;;;;;14.30;6.75;;;;;;;0.97;100.00;95854.38;5037545;28;20042;-78
2021/10/17 07:02:25;;;;;;;17.77;7.45;;;;;;;1.03;100.00;95857.97;5036576;28;20061;-78
2021/10/17 07:04:51;;;;;;;15.45;7.45;;;;;;;1.08;100.00;95860.75;5030702;28;20045;-78
2021/10/17 07:07:16;;;;;;;12.93;6.97;;;;;;;1.16;100.00;95863.13;5044244;28;20079;-79
2021/10/17 07:09:42;;;;;;;15.93;7.95;;;;;;;1.20;100.00;95863.53;5046937;28;20099;-78
2021/10/17 07:12:07;;;;;;;14.75;7.03;;;;;;;1.26;100.00;95861.94;5024647;28;20041;-79
2021/10/17 07:14:33;;;;;;;15.52;7.07;;;;;;;1.32;100.00;95855.94;5013547;28;20115;-77
2021/10/17 07:16:58;;;;;;;12.38;6.50;;;;;;;1.43;100.00;95863.09;5012610;28;20072;-79
2021/10/17 07:19:24;;;;;;;13.25;7.15;;;;;;;1.50;100.00;95866.47;5033902;28;20053;-77
2021/10/17 07:21:49;;;;;;;10.32;5.90;;;;;;;1.59;100.00;95866.25;5036755;28;20045;-79
2021/10/17 07:24:15;;;;;;;15.18;7.55;;;;;;;1.68;100.00;95865.03;5044233;28;20041;-78
2021/10/17 07:26:41;;;;;;;16.13;7.63;;;;;;;1.93;100.00;95872.16;5049370;28;20578;-78
2021/10/17 07:29:06;;;;;;;14.07;7.18;;;;;;;2.01;100.00;95869.31;5040696;28;20178;-78
2021/10/17 07:31:32;;;;;;;14.70;7.95;;;;;;;2.09;100.00;95861.28;5040638;28;20559;-78
2021/10/17 07:33:57;;;;;;;13.88;7.15;;;;;;;2.18;100.00;95865.22;5009820;28;20048;-78
2021/10/17 07:36:23;;;;;;;13.70;7.68;;;;;;;2.31;100.00;95868.78;5039235;28;20033;-78
2021/10/17 07:38:48;;;;;;;13.52;7.50;;;;;;;2.37;100.00;95862.75;5043094;28;20049;-78
2021/10/17 07:41:14;;;;;;;16.48;8.32;;;;;;;2.52;100.00;95865.06;5037380;28;20088;-78
2021/10/17 07:43:40;;;;;;;16.73;9.10;;;;;;;2.74;100.00;95857.72;5025062;28;20048;-77
2021/10/17 07:46:05;;;;;;;14.95;7.78;;;;;;;3.47;100.00;95871.94;5037807;28;20127;-78
2021/10/17 07:48:31;;;;;;;16.60;7.97;;;;;;;3.81;100.00;95867.19;5042079;28;20116;-77
2021/10/17 07:50:57;;;;;;;14.45;7.90;;;;;;;4.04;100.00;95865.72;5055527;28;20044;-78
2021/10/17 07:53:22;;;;;;;15.77;7.38;;;;;;;4.23;100.00;95869.88;5046000;28;20053;-78
2021/10/17 07:55:48;;;;;;;15.05;7.60;;;;;;;4.35;100.00;95856.91;5029231;28;20041;-78
2021/10/17 07:58:14;;;;;;;14.55;7.18;;;;;;;4.58;100.00;95871.81;5036513;28;20045;-78
2021/10/17 08:00:40;;;;;;;16.42;6.80;;;;;;;4.82;100.00;95866.69;5036696;28;20041;-78
2021/10/17 08:03:05;;;;;;;13.07;7.55;;;;;;;4.95;100.00;95874.28;5030588;28;20042;-78
2021/10/17 08:05:31;;;;;;;13.80;7.60;;;;;;;5.11;100.00;95864.22;5034974;28;20046;-77
2021/10/17 08:07:56;;;;;;;10.70;6.30;;;;;;;5.12;100.00;95860.63;5026444;28;20078;-78
2021/10/17 08:10:22;;;;;;;11.13;6.28;;;;;;;5.32;100.00;95855.84;5025067;28;20034;-77
2021/10/17 08:12:47;;;;;;;9.93;6.18;;;;;;;5.46;100.00;95861.66;5018971;28;20037;-78
2021/10/17 08:15:13;;;;;;;11.90;6.65;;;;;;;5.77;100.00;95858.88;5016644;28;20073;-77
2021/10/17 08:17:38;;;;;;;10.63;5.85;;;;;;;5.80;99.79;95866.25;5016657;28;20038;-78
2021/10/17 08:20:06;;;;;;;9.02;5.90;;;;;;;5.65;100.00;95859.69;5002215;28;20629;-78
2021/10/17 08:22:32;;;;;;;10.93;6.03;;;;;;;5.67;100.00;95862.84;5031112;28;20046;-78
2021/10/17 08:24:58;;;;;;;10.52;6.32;;;;;;;6.06;100.00;95860.56;5021467;28;20084;-78
2021/10/17 08:27:24;;;;;;;11.68;5.70;;;;;;;6.00;100.00;95865.91;5046548;28;20626;-78
2021/10/17 08:29:49;;;;;;;14.77;6.38;;;;;;;5.96;100.00;95865.56;5043464;28;20038;-79
2021/10/17 08:32:15;;;;;;;9.98;5.97;;;;;;;6.17;100.00;95865.97;5041924;28;20056;-78
2021/10/17 08:34:41;;;;;;;11.88;6.68;;;;;;;6.46;100.00;95868.59;5030013;28;20674;-78
2021/10/17 08:37:06;;;;;;;15.10;6.63;;;;;;;6.44;100.00;95870.63;5017622;28;20041;-78
2021/10/17 08:39:32;;;;;;;9.93;6.05;;;;;;;6.51;100.00;95876.53;5030128;28;20455;-79
2021/10/17 08:41:57;;;;;;;12.95;6.60;;;;;;;7.00;98.54;95869.00;5025681;28;20302;-80
2021/10/17 08:44:23;;;;;;;9.32;5.20;;;;;;;7.58;95.65;95874.03;5029235;28;20041;-78
2021/10/17 08:46:50;;;;;;;12.25;6.00;;;;;;;7.76;95.46;95878.22;5015669;28;20081;-78
2021/10/17 08:49:20;;;;;;;9.77;5.32;;;;;;;8.04;93.18;95881.72;5036847;28;20034;-77
2021/10/17 08:51:46;;;;;;;13.93;7.30;;;;;;;8.22;92.80;95883.25;5032445;28;20140;-78
2021/10/17 08:54:11;;;;;;;13.27;7.63;;;;;;;8.40;90.90;95880.28;5033522;28;20172;-79
2021/10/17 08:56:37;;;;;;;13.82;7.10;;;;;;;8.51;91.46;95880.44;5047638;28;20037;-78
2021/10/17 08:59:03;;;;;;;15.93;8.60;;;;;;;8.67;90.51;95879.53;5038296;28;20142;-79
2021/10/17 09:01:33;;;;;;;15.40;8.30;;;;;;;8.61;90.88;95885.78;5032157;28;20092;-78
2021/10/17 09:03:59;;;;;;;17.08;8.73;;;;;;;8.46;91.09;95878.53;5024124;28;20434;-82
2021/10/17 09:06:27;;;;;;;14.48;8.18;;;;;;;8.43;91.84;95882.44;5032709;28;20049;-81
2021/10/17 09:09:15;;;;;;;19.58;9.40;;;;;;;8.40;92.32;95875.03;5039685;28;20113;-79
2021/10/17 09:11:46;;;;;;;22.90;10.55;;;;;;;8.46;92.40;95874.09;5027814;28;20609;-83
2021/10/17 09:14:31;;;;;;;23.13;11.80;;;;;;;8.58;92.51;95875.78;5035017;28;20060;-79
2021/10/17 09:16:57;;;;;;;27.00;12.40;;;;;;;8.70;91.96;95863.31;5031889;28;20104;-80
2021/10/17 09:19:28;;;;;;;32.67;14.75;;;;;;;8.88;91.08;95866.59;5031245;28;20041;-80
2021/10/17 09:22:08;;;;;;;32.22;14.50;;;;;;;8.88;90.87;95863.97;5013825;28;20052;-78
2021/10/17 09:24:33;;;;;;;34.63;14.45;;;;;;;9.01;90.19;95864.38;5041215;28;20045;-78
2021/10/17 09:27:25;;;;;;;27.27;13.43;;;;;;;9.21;89.90;95851.63;5013522;28;20061;-80
2021/10/17 09:29:54;;;;;;;25.90;13.10;;;;;;;9.36;88.57;95862.25;5017021;28;20068;-77
2021/10/17 09:32:26;;;;;;;26.02;13.25;;;;;;;9.48;88.32;95860.25;5029850;28;20124;-77
2021/10/17 09:35:04;;;;;;;28.40;13.77;;;;;;;9.51;87.82;95864.19;5011660;28;20067;-80
2021/10/17 09:37:37;;;;;;;31.02;14.80;;;;;;;9.52;88.60;95853.44;5000020;28;20509;-79
2021/10/17 09:43:05;;;;;;;32.28;14.73;;;;;;;10.61;84.90;95861.78;5030554;28;20411;-79
2021/10/17 09:45:31;;;;;;;26.60;13.63;;;;;;;11.21;80.62;95854.97;5011243;28;20042;-77
2021/10/17 09:47:57;;;;;;;30.70;13.57;;;;;;;11.80;77.08;95860.69;5022651;28;20071;-79
2021/10/17 09:50:24;;;;;;;25.50;13.25;;;;;;;12.13;76.78;95861.13;5024367;28;20069;-78
2021/10/17 09:53:03;;;;;;;23.98;13.00;;;;;;;13.43;71.00;95856.63;4994530;28;20050;-81
2021/10/17 09:55:31;;;;;;;25.25;12.73;;;;;;;13.18;71.36;95855.75;5021463;28;20044;-78
2021/10/17 09:57:58;;;;;;;25.40;12.27;;;;;;;14.43;66.18;95853.41;5031898;28;20049;-78
2021/10/17 10:00:23;;;;;;;24.77;12.52;;;;;;;14.64;66.03;95857.38;5031636;28;20041;-78
2021/10/17 10:02:51;;;;;;;23.38;12.43;;;;;;;13.92;68.75;95857.44;5029629;28;20449;-79
2021/10/17 10:05:29;;;;;;;24.02;12.13;;;;;;;13.18;71.41;95861.03;5011138;28;20060;-78
2021/10/17 10:08:01;;;;;;;21.42;11.93;;;;;;;14.03;68.17;95849.09;5011615;28;20053;-79
2021/10/17 10:10:34;;;;;;;24.25;12.23;;;;;;;14.70;64.83;95856.22;5012194;28;20048;-79
2021/10/17 10:13:02;;;;;;;21.13;11.43;;;;;;;15.19;62.14;95856.03;5016303;28;20049;-80
2021/10/17 10:15:30;;;;;;;23.70;12.02;;;;;;;16.03;59.65;95852.47;5026240;28;20053;-78
2021/10/17 10:17:57;;;;;;;23.75;13.05;;;;;;;16.50;58.07;95854.94;5030062;28;20069;-77
2021/10/17 10:20:24;;;;;;;25.85;13.40;;;;;;;15.93;60.60;95847.31;5029842;28;20044;-79
2021/10/17 10:22:53;;;;;;;23.50;13.35;;;;;;;15.13;62.08;95851.88;5009862;28;20088;-80
2021/10/17 10:25:19;;;;;;;28.20;14.15;;;;;;;14.30;64.88;95847.72;5014137;28;20054;-79
2021/10/17 10:27:45;;;;;;;29.38;14.80;;;;;;;13.74;67.09;95849.16;5016844;28;20137;-81
2021/10/17 10:30:24;;;;;;;26.70;13.35;;;;;;;13.46;69.92;95850.75;5027208;28;20487;-77
2021/10/17 10:33:17;;;;;;;25.33;13.55;;;;;;;13.32;70.15;95851.41;5025784;28;20034;-80
2021/10/17 10:36:16;;;;;;;25.08;13.80;;;;;;;14.97;65.02;95846.84;5031885;28;20507;-78
2021/10/17 10:38:54;;;;;;;31.85;14.57;;;;;;;14.65;64.31;95839.63;5027580;28;20450;-79
2021/10/17 10:41:22;;;;;;;25.17;13.55;;;;;;;13.91;65.27;95835.50;5012269;28;20064;-79
2021/10/17 10:43:49;;;;;;;28.45;14.07;;;;;;;13.93;67.47;95837.88;5026579;28;20040;-78
2021/10/17 10:46:28;;;;;;;24.23;12.90;;;;;;;13.77;66.84;95835.38;5016129;28;20076;-79
2021/10/17 10:48:54;;;;;;;24.10;12.65;;;;;;;13.57;67.22;95836.38;5015962;28;20052;-79
2021/10/17 10:51:41;;;;;;;24.67;13.20;;;;;;;14.88;64.41;95835.31;5028693;28;20038;-79
2021/10/17 10:54:25;;;;;;;24.27;13.00;;;;;;;15.71;60.96;95830.19;5017215;28;20149;-79
2021/10/17 10:56:52;;;;;;;24.42;13.27;;;;;;;15.85;59.90;95834.75;5027120;28;20680;-80
2021/10/17 10:59:29;;;;;;;24.13;13.43;;;;;;;15.15;61.07;95824.00;5027404;28;20075;-78
2021/10/17 11:02:11;;;;;;;22.67;13.50;;;;;;;16.17;59.16;95825.09;5025610;28;20041;-79
2021/10/17 11:04:42;;;;;;;23.30;13.98;;;;;;;14.69;62.94;95828.16;5011892;28;20051;-79
2021/10/17 11:07:36;;;;;;;23.77;12.95;;;;;;;16.51;59.41;95823.88;5029034;28;20072;-78
2021/10/17 11:10:27;;;;;;;23.52;12.68;;;;;;;16.42;58.80;95823.78;5024680;28;20061;-79
2021/10/17 11:13:01;;;;;;;24.33;13.00;;;;;;;16.39;59.78;95822.53;5012277;28;20049;-80
2021/10/17 11:15:37;;;;;;;23.50;14.48;;;;;;;16.87;57.55;95821.19;5009738;28;20050;-79
2021/10/17 11:18:11;;;;;;;24.60;15.55;;;;;;;16.18;57.80;95816.06;5009890;28;20065;-79
2021/10/17 11:20:39;;;;;;;22.77;14.10;;;;;;;16.37;58.08;95814.03;5009959;28;20056;-79
2021/10/17 11:23:06;;;;;;;23.52;14.32;;;;;;;16.62;57.31;95809.25;5014221;28;20050;-79
2021/10/17 11:25:32;;;;;;;20.50;13.65;;;;;;;17.46;56.81;95799.03;5032254;28;20049;-78
2021/10/17 11:27:59;;;;;;;24.13;13.65;;;;;;;17.68;55.28;95806.16;5029799;28;20111;-78
2021/10/17 11:30:35;;;;;;;21.20;13.57;;;;;;;16.50;58.27;95796.50;5008640;28;20120;-78